Time;durP1;ratioP1;P1;durP2;ratioP2;P2;SDS_P1;SDS_P2;PMS_P1;PMS_P2;Temp;Humidity;BMP_temperature;BMP_pressure;BME280_temperature;BME280_humidity;BME280_pressure;Samples;Min_cycle;Max_cycle;Signal;HPM_P1;HPM_P2
2022/12/21 00:00:20;;;;;;;5.87;4.80;;;9.30;99.90;;;;;;4912730;29;20467;-74
2022/12/21 00:02:48;;;;;;;6.13;4.70;;;9.30;99.90;;;;;;4913284;29;20491;-74
2022/12/21 00:05:16;;;;;;;5.80;4.43;;;9.30;99.90;;;;;;4925258;29;20543;-74
2022/12/21 00:07:45;;;;;;;4.57;4.00;;;9.30;99.90;;;;;;4913530;29;20436;-74
2022/12/21 00:10:11;;;;;;;4.43;3.57;;;9.30;99.90;;;;;;4898408;29;20445;-74
2022/12/21 00:12:40;;;;;;;4.47;3.13;;;9.30;99.90;;;;;;4928554;29;20472;-74
2022/12/21 00:15:09;;;;;;;3.90;3.50;;;9.40;99.90;;;;;;4914615;29;20455;-74
2022/12/21 00:17:37;;;;;;;4.43;3.70;;;9.30;99.90;;;;;;4913000;29;20452;-74
2022/12/21 00:20:03;;;;;;;4.80;4.00;;;9.40;99.90;;;;;;4928525;29;20516;-74
2022/12/21 00:22:29;;;;;;;4.60;3.90;;;9.30;99.90;;;;;;4913392;29;20801;-74
2022/12/21 00:24:56;;;;;;;4.60;4.00;;;9.30;99.90;;;;;;4912973;29;20512;-74
2022/12/21 00:27:24;;;;;;;4.97;4.37;;;9.40;99.90;;;;;;4921942;29;20440;-74
2022/12/21 00:29:52;;;;;;;4.27;3.47;;;9.40;99.90;;;;;;4912452;29;20487;-74
2022/12/21 00:32:19;;;;;;;4.70;4.30;;;9.40;99.90;;;;;;4912613;29;20460;-74
2022/12/21 00:34:45;;;;;;;5.17;3.80;;;9.40;99.90;;;;;;4912846;29;20603;-74
2022/12/21 00:37:13;;;;;;;3.97;3.57;;;9.40;99.90;;;;;;4928183;29;20463;-74
2022/12/21 00:39:39;;;;;;;5.70;4.60;;;9.40;99.90;;;;;;4924715;29;20457;-74
2022/12/21 00:42:07;;;;;;;4.07;3.37;;;9.40;99.90;;;;;;4916162;28;20486;-74
2022/12/21 00:44:35;;;;;;;5.37;4.80;;;9.40;99.90;;;;;;4928309;29;20452;-74
2022/12/21 00:47:02;;;;;;;5.27;4.27;;;9.40;99.90;;;;;;4912386;29;20478;-74
2022/12/21 00:49:29;;;;;;;5.53;4.93;;;9.40;99.90;;;;;;4912089;29;20547;-74
2022/12/21 00:51:59;;;;;;;6.53;4.90;;;9.40;99.90;;;;;;4912152;29;20591;-74
2022/12/21 00:54:24;;;;;;;13.77;5.33;;;9.40;99.90;;;;;;4928417;29;20405;-73
2022/12/21 00:56:53;;;;;;;4.60;4.00;;;9.40;99.90;;;;;;4912434;29;20441;-74
2022/12/21 00:59:20;;;;;;;7.03;5.10;;;9.40;99.90;;;;;;4911727;29;20425;-74
2022/12/21 01:01:47;;;;;;;4.50;3.97;;;9.40;99.90;;;;;;4912495;29;20876;-74
2022/12/21 01:04:12;;;;;;;6.20;5.13;;;9.40;99.90;;;;;;4927971;29;20421;-74
2022/12/21 01:06:43;;;;;;;5.47;4.60;;;9.40;99.90;;;;;;4912510;29;20424;-74
2022/12/21 01:09:10;;;;;;;4.53;4.13;;;9.40;99.90;;;;;;4912258;29;20433;-74
2022/12/21 01:11:36;;;;;;;5.10;4.40;;;9.40;99.90;;;;;;4913320;29;20811;-74
2022/12/21 01:14:03;;;;;;;5.97;5.37;;;9.40;99.90;;;;;;4928078;29;20914;-74
2022/12/21 01:16:30;;;;;;;5.73;5.13;;;9.40;99.90;;;;;;4911733;29;20815;-74
2022/12/21 01:18:59;;;;;;;6.83;5.67;;;9.40;99.90;;;;;;4896631;29;20431;-74
2022/12/21 01:21:29;;;;;;;6.03;4.80;;;9.40;99.90;;;;;;4911682;29;20425;-74
2022/12/21 01:23:56;;;;;;;9.30;5.33;;;9.40;99.90;;;;;;4912253;29;20413;-74
2022/12/21 01:26:23;;;;;;;5.83;4.93;;;9.40;99.90;;;;;;4910976;29;20466;-74
2022/12/21 01:28:50;;;;;;;6.77;5.97;;;9.40;99.90;;;;;;4927956;29;20404;-73
2022/12/21 01:31:16;;;;;;;5.23;4.73;;;9.40;99.90;;;;;;4927408;29;20455;-74
2022/12/21 01:33:44;;;;;;;6.07;5.10;;;9.40;99.90;;;;;;4910227;29;20980;-74
2022/12/21 01:36:15;;;;;;;5.80;5.10;;;9.40;99.90;;;;;;4927381;29;20511;-74
2022/12/21 01:38:45;;;;;;;6.30;5.33;;;9.40;99.90;;;;;;4927054;29;20425;-74
2022/12/21 01:41:22;;;;;;;7.40;5.50;;;9.40;99.90;;;;;;4911409;29;20452;-74
2022/12/21 01:43:48;;;;;;;6.53;5.87;;;9.40;99.90;;;;;;4908916;29;20516;-74
2022/12/21 01:46:28;;;;;;;5.10;4.60;;;9.40;99.90;;;;;;4885754;29;20531;-74
2022/12/21 01:48:58;;;;;;;6.83;5.00;;;9.40;99.90;;;;;;4862168;29;20451;-73
2022/12/21 01:51:28;;;;;;;6.40;5.60;;;9.40;99.90;;;;;;4918400;28;20535;-74
2022/12/21 01:54:09;;;;;;;6.40;5.00;;;9.40;99.90;;;;;;4901249;29;21024;-74
2022/12/21 01:56:37;;;;;;;5.93;5.37;;;9.40;99.90;;;;;;4894544;29;20491;-74
2022/12/21 01:59:35;;;;;;;6.10;5.47;;;9.40;99.90;;;;;;4896251;29;20774;-74
2022/12/21 02:02:13;;;;;;;8.10;5.60;;;9.40;99.90;;;;;;4891084;29;20453;-74
2022/12/21 02:04:44;;;;;;;6.53;5.30;;;9.40;99.90;;;;;;4911561;29;20512;-74
2022/12/21 02:07:13;;;;;;;6.17;5.57;;;9.40;99.90;;;;;;4923062;29;20461;-74
2022/12/21 02:09:43;;;;;;;7.00;5.93;;;9.40;99.90;;;;;;4881238;29;20568;-74
2022/12/21 02:12:13;;;;;;;10.80;7.10;;;9.40;99.90;;;;;;4911302;29;20822;-74
2022/12/21 02:14:46;;;;;;;7.27;5.63;;;9.40;99.90;;;;;;4911356;29;20786;-74
2022/12/21 02:17:40;;;;;;;7.50;6.40;;;9.40;99.90;;;;;;4912350;29;20459;-74
2022/12/21 02:20:28;;;;;;;9.13;4.77;;;9.40;99.90;;;;;;4926984;29;20458;-74
2022/12/21 02:23:16;;;;;;;7.20;5.93;;;9.40;99.90;;;;;;4927074;29;20453;-74
2022/12/21 02:26:01;;;;;;;7.03;6.20;;;9.40;99.90;;;;;;4926700;28;20459;-74
2022/12/21 02:29:02;;;;;;;8.33;7.23;;;9.40;99.90;;;;;;4911136;29;20449;-74
2022/12/21 02:31:56;;;;;;;7.50;6.63;;;9.40;99.90;;;;;;4846173;29;20501;-74
2022/12/21 02:34:35;;;;;;;8.13;6.70;;;9.40;99.90;;;;;;4926207;29;20471;-74
2022/12/21 02:37:22;;;;;;;8.57;7.47;;;9.40;99.90;;;;;;4896664;29;20490;-73
2022/12/21 02:40:05;;;;;;;7.33;6.27;;;9.40;99.90;;;;;;4895818;29;20451;-72
2022/12/21 02:46:06;;;;;;;7.20;6.13;;;9.40;99.90;;;;;;4910760;28;20492;-71
2022/12/21 02:48:39;;;;;;;8.27;6.57;;;9.40;99.90;;;;;;4921753;28;20825;-71
2022/12/21 02:51:13;;;;;;;7.00;5.83;;;9.40;99.90;;;;;;4928263;29;20802;-71
2022/12/21 02:53:45;;;;;;;6.40;5.63;;;9.40;99.90;;;;;;4928217;28;20814;-71
2022/12/21 02:56:16;;;;;;;7.70;6.30;;;9.40;99.90;;;;;;4912694;29;21039;-72
2022/12/21 02:58:46;;;;;;;7.20;6.10;;;9.40;99.90;;;;;;4911622;28;20841;-72
2022/12/21 03:01:40;;;;;;;8.57;6.37;;;9.40;99.90;;;;;;4927872;29;20420;-71
2022/12/21 03:04:45;;;;;;;7.90;6.70;;;9.40;99.90;;;;;;4893596;28;20473;-72
2022/12/21 03:07:43;;;;;;;8.37;6.90;;;9.40;99.90;;;;;;4907570;29;20426;-71
2022/12/21 03:10:22;;;;;;;7.67;6.10;;;9.40;99.90;;;;;;4959459;28;20451;-72
2022/12/21 03:13:17;;;;;;;8.47;6.20;;;9.40;99.90;;;;;;4927040;28;20464;-72
2022/12/21 03:15:51;;;;;;;7.70;6.90;;;9.40;99.90;;;;;;4928025;29;20405;-71
2022/12/21 03:18:43;;;;;;;8.70;6.63;;;9.40;99.90;;;;;;4928012;29;20439;-72
2022/12/21 03:21:33;;;;;;;6.77;6.07;;;9.40;99.90;;;;;;4912963;29;20531;-72
2022/12/21 03:24:14;;;;;;;7.60;5.90;;;9.40;99.90;;;;;;4912897;29;20464;-72
2022/12/21 03:27:03;;;;;;;7.83;6.10;;;9.40;99.90;;;;;;4895343;28;20469;-72
2022/12/21 03:29:42;;;;;;;7.83;5.93;;;9.40;99.90;;;;;;4894655;29;20445;-71
2022/12/21 03:32:32;;;;;;;7.90;6.50;;;9.40;99.90;;;;;;4917744;29;20451;-71
2022/12/21 03:35:09;;;;;;;7.87;6.27;;;9.40;99.90;;;;;;4900712;28;20836;-72
2022/12/21 03:37:40;;;;;;;7.50;6.00;;;9.40;99.90;;;;;;4893377;29;20540;-71
2022/12/21 03:40:14;;;;;;;7.63;5.53;;;9.40;99.90;;;;;;4919822;29;20863;-72
2022/12/21 03:42:54;;;;;;;10.40;7.17;;;9.40;99.90;;;;;;4911385;29;20448;-72
2022/12/21 03:45:28;;;;;;;9.60;7.40;;;9.40;99.90;;;;;;4924658;28;20580;-71
2022/12/21 03:47:59;;;;;;;10.00;7.17;;;9.40;99.90;;;;;;4902131;29;20444;-72
2022/12/21 03:50:35;;;;;;;7.93;6.10;;;9.40;99.90;;;;;;4925397;29;20441;-72
2022/12/21 03:53:21;;;;;;;9.20;7.10;;;9.40;99.90;;;;;;4909163;29;20463;-72
2022/12/21 03:55:51;;;;;;;8.33;6.77;;;9.40;99.90;;;;;;4900919;29;20436;-71
2022/12/21 03:58:17;;;;;;;8.60;6.60;;;9.40;99.90;;;;;;4895610;29;20471;-72
2022/12/21 04:00:58;;;;;;;11.07;7.57;;;9.40;99.90;;;;;;4927003;29;20425;-71
2022/12/21 04:03:31;;;;;;;7.90;6.63;;;9.40;99.90;;;;;;4911542;29;20472;-71
2022/12/21 04:06:05;;;;;;;9.80;8.03;;;9.40;99.90;;;;;;4909352;29;20504;-71
2022/12/21 04:08:31;;;;;;;9.07;6.50;;;9.40;99.90;;;;;;4911385;29;20449;-72
2022/12/21 04:10:58;;;;;;;10.03;7.00;;;9.40;99.90;;;;;;4911471;29;20429;-72
2022/12/21 04:13:24;;;;;;;7.27;6.27;;;9.40;99.90;;;;;;4911879;29;20506;-71
2022/12/21 04:16:05;;;;;;;9.63;6.80;;;9.40;99.90;;;;;;4911276;29;20449;-71
2022/12/21 04:21:22;;;;;;;8.50;6.70;;;9.40;99.90;;;;;;4927214;29;20412;-72
2022/12/21 04:29:19;;;;;;;7.60;6.63;;;9.40;99.90;;;;;;4956615;28;20790;-73
2022/12/21 04:31:45;;;;;;;7.63;5.93;;;9.40;99.90;;;;;;4983380;28;20459;-73
2022/12/21 04:34:16;;;;;;;9.50;7.30;;;9.40;99.90;;;;;;5017981;28;21046;-72
2022/12/21 04:39:29;;;;;;;7.90;6.03;;;9.40;99.90;;;;;;4994233;28;20844;-73
2022/12/21 04:41:57;;;;;;;9.20;7.47;;;9.40;99.90;;;;;;4992654;28;20495;-73
2022/12/21 04:44:23;;;;;;;9.33;6.37;;;9.40;99.90;;;;;;4987386;28;20521;-73
2022/12/21 04:46:54;;;;;;;8.20;6.70;;;9.40;99.90;;;;;;4990336;28;20429;-73
2022/12/21 04:49:20;;;;;;;10.73;7.60;;;9.40;99.90;;;;;;4974180;28;20452;-73
2022/12/21 04:51:46;;;;;;;8.93;6.60;;;9.50;99.90;;;;;;4994061;28;20461;-72
2022/12/21 04:54:14;;;;;;;8.00;6.67;;;9.40;99.90;;;;;;4992894;28;20198;-73
2022/12/21 04:56:40;;;;;;;10.93;7.23;;;9.40;99.90;;;;;;4982096;28;20427;-73
2022/12/21 04:59:09;;;;;;;9.13;6.67;;;9.40;99.90;;;;;;4974214;28;20792;-73
2022/12/21 05:01:35;;;;;;;9.33;7.03;;;9.40;99.90;;;;;;4996798;28;20445;-77
2022/12/21 05:04:05;;;;;;;9.07;6.53;;;9.50;99.90;;;;;;4994063;28;20201;-76
2022/12/21 05:06:34;;;;;;;9.93;7.20;;;9.50;99.90;;;;;;4983260;28;20449;-75
2022/12/21 05:09:02;;;;;;;8.70;6.30;;;9.40;99.90;;;;;;4973350;28;20398;-75
2022/12/21 05:11:32;;;;;;;9.43;6.90;;;9.40;99.90;;;;;;4972795;28;20895;-76
2022/12/21 05:13:58;;;;;;;10.10;6.27;;;9.40;99.90;;;;;;4980326;28;20544;-75
2022/12/21 05:16:27;;;;;;;9.27;6.90;;;9.50;99.90;;;;;;4976629;28;20440;-76
2022/12/21 05:18:53;;;;;;;8.50;6.90;;;9.50;99.90;;;;;;4993971;28;20437;-75
2022/12/21 05:21:19;;;;;;;9.10;7.03;;;9.50;99.90;;;;;;5008576;28;20437;-76
2022/12/21 05:23:53;;;;;;;8.90;6.80;;;9.50;99.90;;;;;;4992560;28;20822;-75
2022/12/21 05:26:23;;;;;;;10.53;7.10;;;9.50;99.90;;;;;;4976265;28;20464;-76
2022/12/21 05:28:51;;;;;;;8.50;6.40;;;9.40;99.90;;;;;;4992595;28;20432;-76
2022/12/21 05:31:19;;;;;;;11.30;8.00;;;9.40;99.90;;;;;;4976575;28;20844;-77
2022/12/21 05:33:45;;;;;;;10.00;7.63;;;9.50;99.90;;;;;;4989666;28;20978;-77
2022/12/21 05:36:16;;;;;;;11.70;7.73;;;9.50;99.90;;;;;;4991064;28;20441;-77
2022/12/21 05:38:45;;;;;;;12.20;7.43;;;9.50;99.90;;;;;;4975660;28;20409;-76
2022/12/21 05:41:13;;;;;;;10.70;7.70;;;9.50;99.90;;;;;;4956572;28;20461;-76
2022/12/21 05:43:39;;;;;;;9.80;7.40;;;9.50;99.90;;;;;;4964958;28;20459;-77
2022/12/21 05:46:08;;;;;;;8.60;6.70;;;9.40;99.90;;;;;;4975829;28;20472;-77
2022/12/21 05:48:37;;;;;;;12.17;7.33;;;9.50;99.90;;;;;;4992294;28;20460;-77
2022/12/21 05:51:13;;;;;;;13.70;7.60;;;9.50;99.90;;;;;;4973118;28;20438;-76
2022/12/21 05:53:44;;;;;;;12.23;8.27;;;9.50;99.90;;;;;;4973950;28;20524;-77
2022/12/21 05:56:10;;;;;;;12.10;7.40;;;9.50;99.90;;;;;;4974211;28;20406;-77
2022/12/21 05:58:37;;;;;;;8.70;6.30;;;9.50;99.90;;;;;;4988308;28;20424;-77
2022/12/21 06:01:06;;;;;;;9.03;6.63;;;9.50;99.90;;;;;;4992878;28;21006;-77
2022/12/21 06:03:32;;;;;;;11.03;6.93;;;9.50;99.90;;;;;;4977672;28;20450;-77
2022/12/21 06:06:15;;;;;;;9.03;6.60;;;9.50;99.90;;;;;;4957175;28;21029;-77
2022/12/21 06:08:46;;;;;;;7.97;6.23;;;9.50;99.90;;;;;;4973033;28;20440;-76
2022/12/21 06:11:15;;;;;;;11.57;7.47;;;9.50;99.90;;;;;;4988082;28;20983;-77
2022/12/21 06:13:44;;;;;;;9.83;6.47;;;9.40;99.90;;;;;;4975866;28;20511;-76
2022/12/21 06:16:23;;;;;;;9.73;6.80;;;9.50;99.90;;;;;;4961049;28;20926;-76
2022/12/21 06:18:50;;;;;;;9.70;6.87;;;9.40;99.90;;;;;;4989290;28;20796;-76
2022/12/21 06:21:19;;;;;;;11.13;7.17;;;9.50;99.90;;;;;;5009576;28;20520;-77
2022/12/21 06:23:49;;;;;;;10.53;6.80;;;9.50;99.90;;;;;;4979079;28;20977;-77
2022/12/21 06:26:18;;;;;;;7.83;6.20;;;9.50;99.90;;;;;;5012303;28;20475;-77
2022/12/21 06:28:53;;;;;;;8.67;6.83;;;9.50;99.90;;;;;;4992834;28;20915;-77
2022/12/21 06:31:20;;;;;;;8.93;6.30;;;9.50;99.90;;;;;;4989998;28;20429;-77
2022/12/21 06:33:46;;;;;;;9.60;6.67;;;9.50;99.90;;;;;;4977543;28;20815;-77
2022/12/21 06:36:15;;;;;;;8.13;5.93;;;9.50;99.90;;;;;;4976684;28;20445;-77
2022/12/21 06:38:41;;;;;;;9.53;6.30;;;9.50;99.90;;;;;;4976729;28;20395;-77
2022/12/21 06:41:14;;;;;;;7.90;6.37;;;9.50;99.90;;;;;;4982675;28;20443;-77
2022/12/21 06:43:41;;;;;;;10.03;6.93;;;9.50;99.90;;;;;;4980110;28;20502;-77
2022/12/21 06:46:13;;;;;;;10.30;6.90;;;9.50;99.90;;;;;;4969915;28;20984;-77
2022/12/21 06:48:42;;;;;;;8.03;6.20;;;9.50;99.90;;;;;;5016908;28;20487;-77
2022/12/21 06:51:15;;;;;;;9.53;6.50;;;9.50;99.90;;;;;;4999181;28;20416;-77
2022/12/21 06:53:47;;;;;;;8.07;6.33;;;9.50;99.90;;;;;;5001475;28;20813;-78
2022/12/21 06:56:21;;;;;;;8.80;6.73;;;9.50;99.90;;;;;;4995968;28;20405;-78
2022/12/21 06:58:49;;;;;;;9.93;6.33;;;9.50;99.90;;;;;;4991633;28;20437;-76
2022/12/21 07:01:28;;;;;;;9.60;5.90;;;9.50;99.90;;;;;;4995871;28;20899;-77
2022/12/21 07:03:57;;;;;;;9.00;5.97;;;9.50;99.90;;;;;;4960708;28;20441;-76
2022/12/21 07:06:25;;;;;;;10.70;7.17;;;9.50;99.90;;;;;;4960343;28;20442;-76
2022/12/21 07:08:55;;;;;;;8.40;6.57;;;9.50;99.90;;;;;;4976184;28;20433;-77
2022/12/21 07:11:25;;;;;;;7.30;5.50;;;9.50;99.90;;;;;;4982721;28;21023;-77
2022/12/21 07:13:54;;;;;;;11.27;6.30;;;9.50;99.90;;;;;;4960617;28;20527;-78
2022/12/21 07:16:25;;;;;;;9.03;5.10;;;9.50;99.90;;;;;;4972867;28;20919;-77
2022/12/21 07:18:53;;;;;;;6.20;5.03;;;9.50;99.90;;;;;;4975799;28;20414;-77
2022/12/21 07:21:30;;;;;;;8.53;6.07;;;9.50;99.90;;;;;;5001949;28;20478;-77
2022/12/21 07:24:02;;;;;;;8.47;5.13;;;9.50;99.90;;;;;;4991378;28;20457;-78
2022/12/21 07:26:38;;;;;;;6.77;5.23;;;9.50;99.90;;;;;;5013723;28;20470;-77
2022/12/21 07:29:04;;;;;;;7.80;5.27;;;9.50;99.90;;;;;;5014516;28;20841;-77
2022/12/21 07:31:31;;;;;;;8.50;5.67;;;9.50;99.90;;;;;;4998325;28;20401;-77
2022/12/21 07:34:02;;;;;;;7.13;4.83;;;9.50;99.90;;;;;;4976157;28;20433;-77
2022/12/21 07:36:28;;;;;;;6.57;4.50;;;9.50;99.90;;;;;;4991927;28;20748;-77
2022/12/21 07:39:27;;;;;;;7.63;5.17;;;9.50;99.90;;;;;;4991493;28;20394;-77
2022/12/21 07:41:53;;;;;;;8.30;5.90;;;9.50;99.90;;;;;;4978118;28;20453;-77
2022/12/21 07:44:22;;;;;;;6.60;5.27;;;9.50;99.90;;;;;;4994495;28;20405;-77
2022/12/21 07:46:51;;;;;;;4.90;4.40;;;9.50;99.90;;;;;;4985406;28;20475;-77
2022/12/21 07:49:20;;;;;;;6.00;4.63;;;9.50;99.90;;;;;;4994422;28;20401;-78
2022/12/21 07:52:11;;;;;;;6.67;4.60;;;9.50;99.90;;;;;;4978373;28;20527;-77
2022/12/21 07:54:39;;;;;;;6.37;4.50;;;9.50;99.90;;;;;;4989381;28;20455;-76
2022/12/21 07:57:12;;;;;;;7.20;4.83;;;9.50;99.90;;;;;;4976786;28;20422;-77
2022/12/21 07:59:42;;;;;;;5.10;4.20;;;9.50;99.90;;;;;;5004603;28;20431;-78
2022/12/21 08:02:11;;;;;;;6.67;4.63;;;9.50;99.90;;;;;;4989870;28;20469;-77
2022/12/21 08:04:42;;;;;;;6.50;4.50;;;9.50;99.90;;;;;;4962245;28;20453;-77
2022/12/21 08:07:08;;;;;;;4.90;4.20;;;9.50;99.90;;;;;;5008178;28;20424;-77
2022/12/21 08:09:37;;;;;;;6.40;4.40;;;9.50;99.90;;;;;;5009824;28;20400;-77
2022/12/21 08:12:04;;;;;;;4.73;4.00;;;9.50;99.90;;;;;;4992926;28;20586;-77
2022/12/21 08:14:40;;;;;;;5.60;4.40;;;9.50;99.90;;;;;;4994143;28;20433;-77
2022/12/21 08:17:06;;;;;;;4.73;4.00;;;9.50;99.90;;;;;;4995125;28;20449;-76
2022/12/21 08:19:32;;;;;;;4.53;3.97;;;9.50;99.90;;;;;;4993236;28;20476;-77
2022/12/21 08:22:06;;;;;;;6.10;4.30;;;9.50;99.90;;;;;;5009512;28;20557;-77
2022/12/21 08:24:35;;;;;;;5.43;4.00;;;9.50;99.90;;;;;;4987165;28;20437;-77
2022/12/21 08:27:03;;;;;;;4.90;4.23;;;9.50;99.90;;;;;;4974361;28;20438;-77
2022/12/21 08:29:31;;;;;;;6.27;4.50;;;9.50;99.90;;;;;;4951319;28;20418;-77
2022/12/21 08:31:59;;;;;;;5.37;4.27;;;9.50;99.90;;;;;;4974063;28;20508;-77
2022/12/21 08:34:25;;;;;;;6.03;4.40;;;9.50;99.90;;;;;;4975896;28;20429;-77
2022/12/21 08:36:51;;;;;;;5.60;3.37;;;9.50;99.90;;;;;;4976693;28;20790;-77
2022/12/21 08:39:19;;;;;;;4.77;3.90;;;9.50;99.90;;;;;;4977059;28;20479;-78
2022/12/21 08:41:45;;;;;;;5.67;4.30;;;9.50;99.90;;;;;;4996527;28;20744;-77
2022/12/21 08:44:15;;;;;;;5.37;3.90;;;9.50;99.90;;;;;;4995025;28;20433;-77
2022/12/21 08:46:42;;;;;;;5.97;4.60;;;9.50;99.90;;;;;;4992569;28;20595;-77
2022/12/21 08:49:24;;;;;;;4.17;3.60;;;9.50;99.90;;;;;;4978268;28;20548;-77
2022/12/21 08:51:52;;;;;;;7.50;5.10;;;9.50;99.90;;;;;;4977034;28;20441;-77
2022/12/21 08:54:20;;;;;;;6.20;3.83;;;9.50;99.90;;;;;;5013873;28;20435;-77
2022/12/21 08:56:49;;;;;;;6.80;4.83;;;9.50;99.90;;;;;;4993167;28;20448;-77
2022/12/21 08:59:17;;;;;;;5.47;4.80;;;9.50;99.90;;;;;;4984297;28;21176;-77
2022/12/21 09:01:44;;;;;;;5.53;4.40;;;9.50;99.90;;;;;;4995127;28;20543;-77
2022/12/21 09:04:12;;;;;;;8.03;4.93;;;9.50;99.90;;;;;;4984650;28;20425;-77
2022/12/21 09:06:39;;;;;;;5.67;3.90;;;9.50;99.90;;;;;;4974408;28;20457;-77
2022/12/21 09:09:09;;;;;;;7.50;5.13;;;9.50;99.90;;;;;;4946754;28;20475;-77
2022/12/21 09:11:37;;;;;;;6.60;4.67;;;9.50;99.90;;;;;;4960088;28;20787;-77
2022/12/21 09:14:07;;;;;;;6.23;4.80;;;9.50;99.90;;;;;;5007546;28;20487;-77
2022/12/21 09:16:35;;;;;;;8.47;4.77;;;9.50;99.90;;;;;;4950122;28;20441;-77
2022/12/21 09:19:04;;;;;;;7.03;4.17;;;9.50;99.90;;;;;;4982434;28;20430;-77
2022/12/21 09:21:33;;;;;;;6.40;4.43;;;9.50;99.90;;;;;;4972928;28;20535;-77
2022/12/21 09:24:02;;;;;;;5.63;4.13;;;9.50;99.90;;;;;;4958288;28;20473;-77
2022/12/21 09:26:31;;;;;;;10.03;5.27;;;9.50;99.90;;;;;;4987592;28;20465;-77
2022/12/21 09:28:57;;;;;;;6.67;4.83;;;9.50;99.90;;;;;;4991736;28;20437;-77
2022/12/21 09:31:34;;;;;;;5.27;4.20;;;9.50;99.90;;;;;;4972742;28;20449;-77
2022/12/21 09:34:05;;;;;;;7.47;5.20;;;9.50;99.90;;;;;;4986689;28;20518;-77
2022/12/21 09:36:32;;;;;;;9.37;5.47;;;9.50;99.90;;;;;;4979204;28;20433;-77
2022/12/21 09:39:06;;;;;;;8.43;5.90;;;9.50;99.90;;;;;;4991994;28;20425;-77
2022/12/21 09:41:46;;;;;;;7.53;5.07;;;9.50;99.90;;;;;;4993585;28;20497;-77
2022/12/21 09:44:23;;;;;;;8.43;5.60;;;9.50;99.90;;;;;;4984269;28;20428;-78
2022/12/21 09:46:53;;;;;;;8.10;5.40;;;9.50;99.90;;;;;;4991006;28;20472;-77
2022/12/21 09:49:22;;;;;;;7.60;5.63;;;9.50;99.90;;;;;;4986816;28;20507;-77
2022/12/21 09:51:54;;;;;;;8.37;5.63;;;9.50;99.90;;;;;;4955104;28;20452;-77
2022/12/21 09:54:49;;;;;;;7.90;5.60;;;9.50;99.90;;;;;;4980624;28;20465;-77
2022/12/21 09:57:16;;;;;;;10.30;6.50;;;9.50;99.90;;;;;;4977949;28;20437;-76
2022/12/21 09:59:44;;;;;;;12.97;8.07;;;9.50;99.90;;;;;;4975554;28;20459;-77
2022/12/21 10:02:19;;;;;;;11.80;6.97;;;9.50;99.90;;;;;;5000667;28;20671;-77
2022/12/21 10:05:03;;;;;;;13.33;7.83;;;9.50;99.90;;;;;;4992887;28;20456;-77
2022/12/21 10:08:16;;;;;;;12.33;7.90;;;9.50;99.90;;;;;;4974760;28;20481;-77
2022/12/21 10:11:38;;;;;;;13.60;8.40;;;9.50;99.90;;;;;;4993499;28;20412;-77
2022/12/21 10:14:21;;;;;;;12.43;7.93;;;9.50;99.90;;;;;;4991889;28;20925;-76
2022/12/21 10:17:15;;;;;;;15.17;9.20;;;9.50;99.90;;;;;;4989621;28;20508;-75
2022/12/21 10:20:00;;;;;;;15.10;9.80;;;9.50;99.90;;;;;;4981014;28;20441;-75
2022/12/21 10:22:36;;;;;;;16.00;10.30;;;9.50;99.90;;;;;;4975631;28;20861;-76
2022/12/21 10:25:15;;;;;;;17.43;10.30;;;9.50;99.90;;;;;;4973353;28;20457;-76
2022/12/21 10:27:55;;;;;;;15.50;10.43;;;9.50;99.90;;;;;;4983640;28;20815;-75
2022/12/21 10:30:23;;;;;;;19.37;10.17;;;9.50;99.90;;;;;;4978777;28;20432;-75
2022/12/21 10:32:50;;;;;;;15.97;10.30;;;9.50;99.90;;;;;;4974828;28;21026;-75
2022/12/21 10:35:17;;;;;;;20.20;11.20;;;9.50;99.90;;;;;;4992371;28;20433;-74
2022/12/21 10:37:49;;;;;;;18.03;10.77;;;9.60;99.90;;;;;;4983799;28;20504;-74
2022/12/21 10:40:19;;;;;;;15.87;10.53;;;9.60;99.90;;;;;;4990952;28;20969;-74
2022/12/21 10:42:49;;;;;;;20.77;11.40;;;9.60;99.90;;;;;;4974806;28;20963;-75
2022/12/21 10:45:17;;;;;;;18.57;11.77;;;9.60;99.90;;;;;;4982952;28;20909;-75
2022/12/21 10:47:44;;;;;;;16.17;10.23;;;9.60;99.90;;;;;;4991196;28;20949;-75
2022/12/21 10:50:19;;;;;;;20.57;12.10;;;9.60;99.90;;;;;;4988928;28;20939;-75
2022/12/21 10:52:47;;;;;;;23.20;13.23;;;9.60;99.90;;;;;;4992055;28;20463;-76
2022/12/21 10:55:19;;;;;;;18.43;11.67;;;9.60;99.90;;;;;;4990365;28;20451;-75
2022/12/21 10:58:23;;;;;;;18.60;11.37;;;9.60;99.90;;;;;;4971606;28;20438;-75
2022/12/21 11:01:04;;;;;;;19.20;11.70;;;9.60;99.90;;;;;;4942579;28;20973;-75
2022/12/21 11:03:38;;;;;;;20.43;12.80;;;9.60;99.90;;;;;;4989961;28;20550;-75
2022/12/21 11:06:31;;;;;;;18.50;11.60;;;9.60;99.90;;;;;;4976667;28;20458;-73
2022/12/21 11:08:57;;;;;;;15.30;10.00;;;9.60;99.90;;;;;;4953800;28;20485;-75
2022/12/21 11:11:32;;;;;;;21.33;12.10;;;9.60;99.90;;;;;;4994071;28;20441;-74
2022/12/21 11:13:59;;;;;;;17.77;11.20;;;9.60;99.90;;;;;;4998417;28;20425;-75
2022/12/21 11:16:32;;;;;;;16.30;10.50;;;9.60;99.90;;;;;;4991223;28;20467;-77
2022/12/21 11:19:03;;;;;;;22.00;12.23;;;9.60;99.90;;;;;;4959875;28;20457;-78
2022/12/21 11:21:35;;;;;;;17.90;10.40;;;9.60;99.90;;;;;;4970235;28;20519;-79
2022/12/21 11:24:17;;;;;;;17.67;10.90;;;9.60;99.90;;;;;;4987159;28;20975;-78
2022/12/21 11:26:46;;;;;;;18.23;10.73;;;9.60;99.90;;;;;;4995867;28;21064;-77
2022/12/21 11:29:23;;;;;;;19.20;11.90;;;9.60;99.90;;;;;;4996327;28;20424;-78
2022/12/21 11:31:50;;;;;;;15.73;10.97;;;9.60;99.90;;;;;;4961885;28;20464;-78
2022/12/21 11:34:35;;;;;;;17.70;11.37;;;9.60;99.90;;;;;;4979475;28;20525;-78
2022/12/21 11:37:04;;;;;;;16.47;9.77;;;9.60;99.90;;;;;;4977709;28;21049;-78
2022/12/21 11:39:30;;;;;;;20.80;9.57;;;9.60;99.90;;;;;;4963059;28;20423;-78
2022/12/21 11:41:56;;;;;;;15.77;10.33;;;9.60;99.90;;;;;;4976207;28;20533;-78
2022/12/21 11:44:25;;;;;;;17.60;10.90;;;9.60;99.90;;;;;;4964598;28;20457;-78
2022/12/21 11:47:35;;;;;;;16.97;11.53;;;9.60;99.90;;;;;;4995754;28;20496;-78
2022/12/21 11:50:10;;;;;;;16.73;10.50;;;9.60;99.90;;;;;;5011777;28;20451;-77
2022/12/21 11:52:54;;;;;;;17.63;10.40;;;9.60;99.90;;;;;;5010871;28;20477;-78
2022/12/21 11:55:51;;;;;;;14.90;10.17;;;9.70;99.90;;;;;;5015762;28;20511;-77
2022/12/21 11:58:34;;;;;;;18.03;10.07;;;9.60;99.90;;;;;;4966693;28;21000;-77
2022/12/21 12:01:44;;;;;;;16.40;10.83;;;9.60;99.90;;;;;;4995815;28;20440;-77
2022/12/21 12:04:32;;;;;;;12.10;8.70;;;9.70;99.90;;;;;;4954411;28;20488;-78
2022/12/21 12:07:07;;;;;;;17.13;9.50;;;9.60;99.90;;;;;;5008260;28;20479;-79
2022/12/21 12:10:15;;;;;;;16.03;9.33;;;9.70;99.90;;;;;;4966195;28;20458;-78
2022/12/21 12:12:48;;;;;;;14.70;9.63;;;9.70;99.90;;;;;;4980714;28;20445;-77
2022/12/21 12:15:42;;;;;;;15.80;9.37;;;9.70;99.90;;;;;;4990302;28;20524;-78
2022/12/21 12:18:27;;;;;;;13.63;8.60;;;9.70;99.90;;;;;;4976233;28;20410;-78
2022/12/21 12:21:15;;;;;;;15.87;9.60;;;9.70;99.90;;;;;;4978272;28;20508;-78
2022/12/21 12:24:07;;;;;;;22.80;9.87;;;9.70;99.90;;;;;;4977598;28;20444;-78
2022/12/21 12:26:49;;;;;;;13.70;9.33;;;9.70;99.90;;;;;;4990483;28;20992;-78
2022/12/21 12:29:15;;;;;;;15.37;8.20;;;9.70;99.90;;;;;;4947703;28;21195;-78
2022/12/21 12:32:08;;;;;;;19.27;10.00;;;9.70;99.90;;;;;;4995428;28;20405;-78
2022/12/21 12:34:51;;;;;;;15.00;9.67;;;9.70;99.90;;;;;;5045279;23;22189;-75
2022/12/21 12:37:56;;;;;;;17.80;10.00;;;9.70;99.90;;;;;;4974416;28;20480;-75
2022/12/21 12:40:31;;;;;;;15.60;10.10;;;9.70;99.90;;;;;;4961795;28;20533;-75
2022/12/21 12:43:11;;;;;;;13.17;9.33;;;9.70;99.90;;;;;;4940687;28;20487;-75
2022/12/21 12:45:59;;;;;;;17.67;8.60;;;9.70;99.90;;;;;;4971127;28;20466;-75
2022/12/21 12:48:43;;;;;;;15.77;8.50;;;9.70;99.90;;;;;;4971572;28;20910;-75
2022/12/21 12:51:23;;;;;;;18.37;10.50;;;9.70;99.90;;;;;;4938058;28;20458;-75
2022/12/21 12:54:13;;;;;;;13.97;8.77;;;9.70;99.90;;;;;;4969063;28;20458;-76
2022/12/21 12:57:03;;;;;;;17.57;10.70;;;9.70;99.90;;;;;;4971172;28;20448;-76
2022/12/21 12:59:51;;;;;;;14.07;9.17;;;9.70;99.90;;;;;;4975407;28;20481;-76
2022/12/21 13:02:29;;;;;;;13.60;10.10;;;9.70;99.90;;;;;;4975114;28;20994;-76
2022/12/21 13:04:58;;;;;;;17.57;9.77;;;9.70;99.90;;;;;;4953939;28;21123;-76
2022/12/21 13:07:41;;;;;;;17.27;10.47;;;9.70;99.90;;;;;;4954168;28;21072;-76
2022/12/21 13:10:22;;;;;;;14.67;9.50;;;9.70;99.90;;;;;;4953974;28;20432;-76
2022/12/21 13:12:55;;;;;;;16.67;9.57;;;9.70;99.90;;;;;;4968433;28;20573;-76
2022/12/21 13:15:34;;;;;;;12.20;8.40;;;9.70;99.90;;;;;;4969862;28;20841;-76
2022/12/21 13:18:12;;;;;;;15.20;7.97;;;9.70;99.90;;;;;;4953684;28;20458;-76
2022/12/21 13:20:40;;;;;;;12.87;9.10;;;9.70;99.90;;;;;;4969002;28;20966;-76
2022/12/21 13:23:27;;;;;;;16.97;10.60;;;9.70;99.90;;;;;;4953345;28;20905;-76
2022/12/21 13:26:10;;;;;;;15.43;8.67;;;9.70;99.90;;;;;;4968819;28;20548;-76
2022/12/21 13:28:48;;;;;;;14.00;9.20;;;9.70;99.90;;;;;;4970778;28;20454;-76
2022/12/21 13:31:19;;;;;;;17.20;8.93;;;9.70;99.90;;;;;;4968378;28;20453;-77
2022/12/21 13:33:51;;;;;;;12.23;8.50;;;9.70;99.90;;;;;;4970775;28;20498;-77
2022/12/21 13:36:22;;;;;;;13.60;9.37;;;9.70;99.90;;;;;;4970160;28;20450;-77
2022/12/21 13:39:05;;;;;;;11.93;8.63;;;9.70;99.90;;;;;;4970625;28;20481;-77
2022/12/21 13:41:37;;;;;;;14.87;7.87;;;9.70;99.90;;;;;;4957673;28;21340;-77